sensor_id;sensor_type;location;lat;lon;timestamp;temperature;humidity
19847;DHT22;10084;50.518;8.588;2022-07-21T00:00:56;22.00;86.40
19847;DHT22;10084;50.518;8.588;2022-07-21T00:03:21;22.10;84.40
19847;DHT22;10084;50.518;8.588;2022-07-21T00:05:47;22.00;86.40
19847;DHT22;10084;50.518;8.588;2022-07-21T00:08:13;22.00;86.30
19847;DHT22;10084;50.518;8.588;2022-07-21T00:10:39;22.10;82.60
19847;DHT22;10084;50.518;8.588;2022-07-21T00:13:05;22.00;76.00
19847;DHT22;10084;50.518;8.588;2022-07-21T00:15:31;22.00;75.60
19847;DHT22;10084;50.518;8.588;2022-07-21T00:17:57;22.10;75.30
19847;DHT22;10084;50.518;8.588;2022-07-21T00:20:24;22.10;75.60
19847;DHT22;10084;50.518;8.588;2022-07-21T00:22:50;22.10;75.70
19847;DHT22;10084;50.518;8.588;2022-07-21T00:25:16;22.10;75.90
19847;DHT22;10084;50.518;8.588;2022-07-21T00:27:42;22.10;76.10
19847;DHT22;10084;50.518;8.588;2022-07-21T00:30:09;22.10;76.60
19847;DHT22;10084;50.518;8.588;2022-07-21T00:32:36;22.10;76.60
19847;DHT22;10084;50.518;8.588;2022-07-21T00:35:04;22.10;76.70
19847;DHT22;10084;50.518;8.588;2022-07-21T00:37:30;22.10;76.60
19847;DHT22;10084;50.518;8.588;2022-07-21T00:39:56;22.00;76.90
19847;DHT22;10084;50.518;8.588;2022-07-21T00:42:30;22.00;76.50
19847;DHT22;10084;50.518;8.588;2022-07-21T00:44:56;22.00;76.60
19847;DHT22;10084;50.518;8.588;2022-07-21T00:47:24;22.00;76.70
19847;DHT22;10084;50.518;8.588;2022-07-21T00:49:50;22.00;77.20
19847;DHT22;10084;50.518;8.588;2022-07-21T00:52:16;22.00;77.30
19847;DHT22;10084;50.518;8.588;2022-07-21T00:54:42;22.00;77.40
19847;DHT22;10084;50.518;8.588;2022-07-21T00:57:08;22.10;77.50
19847;DHT22;10084;50.518;8.588;2022-07-21T00:59:34;22.10;77.50
19847;DHT22;10084;50.518;8.588;2022-07-21T01:02:00;22.10;77.30
19847;DHT22;10084;50.518;8.588;2022-07-21T01:04:26;22.10;77.70
19847;DHT22;10084;50.518;8.588;2022-07-21T01:06:53;22.10;77.70
19847;DHT22;10084;50.518;8.588;2022-07-21T01:09:20;22.10;78.00
19847;DHT22;10084;50.518;8.588;2022-07-21T01:11:46;22.10;77.90
19847;DHT22;10084;50.518;8.588;2022-07-21T01:14:12;22.20;77.80
19847;DHT22;10084;50.518;8.588;2022-07-21T01:16:38;22.10;77.90
19847;DHT22;10084;50.518;8.588;2022-07-21T01:19:06;22.10;77.90
19847;DHT22;10084;50.518;8.588;2022-07-21T01:21:38;22.10;77.70
19847;DHT22;10084;50.518;8.588;2022-07-21T01:24:05;22.10;77.60
19847;DHT22;10084;50.518;8.588;2022-07-21T01:26:46;22.10;77.90
19847;DHT22;10084;50.518;8.588;2022-07-21T01:29:13;22.20;78.00
19847;DHT22;10084;50.518;8.588;2022-07-21T01:31:40;22.20;78.00
19847;DHT22;10084;50.518;8.588;2022-07-21T01:34:07;22.20;77.80
19847;DHT22;10084;50.518;8.588;2022-07-21T01:36:33;22.20;77.70
19847;DHT22;10084;50.518;8.588;2022-07-21T01:38:59;22.20;77.80
19847;DHT22;10084;50.518;8.588;2022-07-21T01:41:43;22.20;78.00
19847;DHT22;10084;50.518;8.588;2022-07-21T01:44:11;22.20;77.90
19847;DHT22;10084;50.518;8.588;2022-07-21T01:46:40;22.20;78.00
19847;DHT22;10084;50.518;8.588;2022-07-21T01:49:06;22.20;78.30
19847;DHT22;10084;50.518;8.588;2022-07-21T01:51:33;22.20;78.30
19847;DHT22;10084;50.518;8.588;2022-07-21T01:53:59;22.10;78.30
19847;DHT22;10084;50.518;8.588;2022-07-21T01:56:26;22.10;78.20
19847;DHT22;10084;50.518;8.588;2022-07-21T01:58:55;22.10;78.40
19847;DHT22;10084;50.518;8.588;2022-07-21T02:01:23;22.10;78.90
19847;DHT22;10084;50.518;8.588;2022-07-21T02:03:52;22.10;78.90
19847;DHT22;10084;50.518;8.588;2022-07-21T02:06:18;22.00;78.80
19847;DHT22;10084;50.518;8.588;2022-07-21T02:08:43;22.00;78.80
19847;DHT22;10084;50.518;8.588;2022-07-21T02:11:10;21.90;78.90
19847;DHT22;10084;50.518;8.588;2022-07-21T02:13:37;21.90;79.00
19847;DHT22;10084;50.518;8.588;2022-07-21T02:16:03;21.80;78.90
19847;DHT22;10084;50.518;8.588;2022-07-21T02:18:29;21.70;79.00
19847;DHT22;10084;50.518;8.588;2022-07-21T02:20:55;21.60;78.80
19847;DHT22;10084;50.518;8.588;2022-07-21T02:23:24;21.50;78.90
19847;DHT22;10084;50.518;8.588;2022-07-21T02:25:51;21.40;79.10
19847;DHT22;10084;50.518;8.588;2022-07-21T02:28:20;21.30;79.30
19847;DHT22;10084;50.518;8.588;2022-07-21T02:33:13;21.10;89.60
19847;DHT22;10084;50.518;8.588;2022-07-21T02:35:40;21.00;88.20
19847;DHT22;10084;50.518;8.588;2022-07-21T02:38:06;20.90;88.50
19847;DHT22;10084;50.518;8.588;2022-07-21T02:40:32;20.80;90.20
19847;DHT22;10084;50.518;8.588;2022-07-21T02:42:58;20.70;91.30
19847;DHT22;10084;50.518;8.588;2022-07-21T02:50:16;20.50;95.70
19847;DHT22;10084;50.518;8.588;2022-07-21T02:52:43;20.40;95.50
19847;DHT22;10084;50.518;8.588;2022-07-21T02:55:09;20.40;92.70
19847;DHT22;10084;50.518;8.588;2022-07-21T02:57:35;20.30;87.10
19847;DHT22;10084;50.518;8.588;2022-07-21T03:00:01;20.30;88.10
19847;DHT22;10084;50.518;8.588;2022-07-21T03:02:26;20.20;88.50
19847;DHT22;10084;50.518;8.588;2022-07-21T03:04:52;20.20;89.90
19847;DHT22;10084;50.518;8.588;2022-07-21T03:07:18;20.20;90.30
19847;DHT22;10084;50.518;8.588;2022-07-21T03:09:43;20.20;90.70
19847;DHT22;10084;50.518;8.588;2022-07-21T03:12:09;20.10;90.80
19847;DHT22;10084;50.518;8.588;2022-07-21T03:14:35;20.10;90.50
19847;DHT22;10084;50.518;8.588;2022-07-21T03:17:01;20.10;90.30
19847;DHT22;10084;50.518;8.588;2022-07-21T03:19:28;20.00;90.50
19847;DHT22;10084;50.518;8.588;2022-07-21T03:21:53;20.00;90.20
19847;DHT22;10084;50.518;8.588;2022-07-21T03:24:19;20.00;86.90
19847;DHT22;10084;50.518;8.588;2022-07-21T03:26:45;19.90;86.50
19847;DHT22;10084;50.518;8.588;2022-07-21T03:29:10;19.90;87.00
19847;DHT22;10084;50.518;8.588;2022-07-21T03:31:36;19.90;86.90
19847;DHT22;10084;50.518;8.588;2022-07-21T03:34:02;19.90;86.90
19847;DHT22;10084;50.518;8.588;2022-07-21T03:36:28;19.80;87.20
19847;DHT22;10084;50.518;8.588;2022-07-21T03:38:53;19.80;87.90
19847;DHT22;10084;50.518;8.588;2022-07-21T03:41:19;19.80;87.70
19847;DHT22;10084;50.518;8.588;2022-07-21T03:43:45;19.80;88.00
19847;DHT22;10084;50.518;8.588;2022-07-21T03:46:11;19.80;87.80
19847;DHT22;10084;50.518;8.588;2022-07-21T03:48:36;19.90;87.50
19847;DHT22;10084;50.518;8.588;2022-07-21T03:51:02;19.90;87.40
19847;DHT22;10084;50.518;8.588;2022-07-21T03:53:28;19.90;87.20
19847;DHT22;10084;50.518;8.588;2022-07-21T03:55:54;19.90;86.30
19847;DHT22;10084;50.518;8.588;2022-07-21T03:58:19;20.00;85.60
19847;DHT22;10084;50.518;8.588;2022-07-21T04:00:46;20.00;85.30
19847;DHT22;10084;50.518;8.588;2022-07-21T04:03:12;20.00;85.00
19847;DHT22;10084;50.518;8.588;2022-07-21T04:05:39;20.00;85.00
19847;DHT22;10084;50.518;8.588;2022-07-21T04:08:06;20.00;84.90
19847;DHT22;10084;50.518;8.588;2022-07-21T04:10:35;20.00;84.70
19847;DHT22;10084;50.518;8.588;2022-07-21T04:13:04;20.00;84.60
19847;DHT22;10084;50.518;8.588;2022-07-21T04:15:30;20.00;84.70
19847;DHT22;10084;50.518;8.588;2022-07-21T04:17:56;20.10;84.90
19847;DHT22;10084;50.518;8.588;2022-07-21T04:20:22;20.10;84.80
19847;DHT22;10084;50.518;8.588;2022-07-21T04:22:49;20.10;84.90
19847;DHT22;10084;50.518;8.588;2022-07-21T04:25:16;20.10;84.90
19847;DHT22;10084;50.518;8.588;2022-07-21T04:27:42;20.10;84.80
19847;DHT22;10084;50.518;8.588;2022-07-21T04:30:11;20.10;84.70
19847;DHT22;10084;50.518;8.588;2022-07-21T04:32:38;20.10;84.80
19847;DHT22;10084;50.518;8.588;2022-07-21T04:35:05;20.10;84.90
19847;DHT22;10084;50.518;8.588;2022-07-21T04:37:31;20.10;84.80
19847;DHT22;10084;50.518;8.588;2022-07-21T04:39:57;20.10;84.80
19847;DHT22;10084;50.518;8.588;2022-07-21T04:42:22;20.10;84.70
19847;DHT22;10084;50.518;8.588;2022-07-21T04:44:48;20.10;84.70
19847;DHT22;10084;50.518;8.588;2022-07-21T04:47:14;20.10;84.80
19847;DHT22;10084;50.518;8.588;2022-07-21T04:49:40;20.10;84.80
19847;DHT22;10084;50.518;8.588;2022-07-21T04:52:06;20.10;84.90
19847;DHT22;10084;50.518;8.588;2022-07-21T04:54:31;20.10;84.90
19847;DHT22;10084;50.518;8.588;2022-07-21T04:56:57;20.10;85.00
19847;DHT22;10084;50.518;8.588;2022-07-21T04:59:23;20.10;85.10
19847;DHT22;10084;50.518;8.588;2022-07-21T05:01:50;20.10;85.20
19847;DHT22;10084;50.518;8.588;2022-07-21T05:04:16;20.10;85.20
19847;DHT22;10084;50.518;8.588;2022-07-21T05:06:41;20.20;85.70
19847;DHT22;10084;50.518;8.588;2022-07-21T05:09:07;20.20;85.80
19847;DHT22;10084;50.518;8.588;2022-07-21T05:11:33;20.20;86.20
19847;DHT22;10084;50.518;8.588;2022-07-21T05:13:59;20.20;86.30
19847;DHT22;10084;50.518;8.588;2022-07-21T05:16:24;20.20;86.40
19847;DHT22;10084;50.518;8.588;2022-07-21T05:18:50;20.20;86.90
19847;DHT22;10084;50.518;8.588;2022-07-21T05:21:16;20.30;87.20
19847;DHT22;10084;50.518;8.588;2022-07-21T05:23:41;20.30;87.20
19847;DHT22;10084;50.518;8.588;2022-07-21T05:26:07;20.50;88.70
19847;DHT22;10084;50.518;8.588;2022-07-21T05:28:33;21.00;90.70
19847;DHT22;10084;50.518;8.588;2022-07-21T05:30:58;21.60;91.20
19847;DHT22;10084;50.518;8.588;2022-07-21T05:33:24;22.40;91.40
19847;DHT22;10084;50.518;8.588;2022-07-21T05:35:50;23.20;91.40
19847;DHT22;10084;50.518;8.588;2022-07-21T05:38:16;23.90;90.80
19847;DHT22;10084;50.518;8.588;2022-07-21T05:40:41;24.70;90.60
19847;DHT22;10084;50.518;8.588;2022-07-21T05:43:08;25.20;90.20
19847;DHT22;10084;50.518;8.588;2022-07-21T05:45:34;25.80;89.00
19847;DHT22;10084;50.518;8.588;2022-07-21T05:47:59;25.80;87.40
19847;DHT22;10084;50.518;8.588;2022-07-21T05:50:25;26.60;86.70
19847;DHT22;10084;50.518;8.588;2022-07-21T05:52:51;27.00;85.50
19847;DHT22;10084;50.518;8.588;2022-07-21T05:55:16;27.10;83.90
19847;DHT22;10084;50.518;8.588;2022-07-21T05:57:42;27.10;83.10
19847;DHT22;10084;50.518;8.588;2022-07-21T06:00:09;27.00;81.90
19847;DHT22;10084;50.518;8.588;2022-07-21T06:02:35;26.60;81.80
19847;DHT22;10084;50.518;8.588;2022-07-21T06:05:00;26.20;81.10
19847;DHT22;10084;50.518;8.588;2022-07-21T06:07:26;25.80;80.30
19847;DHT22;10084;50.518;8.588;2022-07-21T06:09:52;25.40;80.30
19847;DHT22;10084;50.518;8.588;2022-07-21T06:12:18;25.10;80.40
19847;DHT22;10084;50.518;8.588;2022-07-21T06:14:47;25.00;81.80
19847;DHT22;10084;50.518;8.588;2022-07-21T06:17:15;25.30;82.90
19847;DHT22;10084;50.518;8.588;2022-07-21T06:19:40;26.00;84.10
19847;DHT22;10084;50.518;8.588;2022-07-21T06:22:06;26.80;86.00
19847;DHT22;10084;50.518;8.588;2022-07-21T06:24:32;27.60;85.70
19847;DHT22;10084;50.518;8.588;2022-07-21T06:26:57;28.30;86.50
19847;DHT22;10084;50.518;8.588;2022-07-21T06:29:23;28.70;86.30
19847;DHT22;10084;50.518;8.588;2022-07-21T06:31:50;29.10;88.20
19847;DHT22;10084;50.518;8.588;2022-07-21T06:34:16;29.20;82.80
19847;DHT22;10084;50.518;8.588;2022-07-21T06:36:42;28.80;81.80
19847;DHT22;10084;50.518;8.588;2022-07-21T06:39:08;28.40;80.80
19847;DHT22;10084;50.518;8.588;2022-07-21T06:41:34;27.90;80.30
19847;DHT22;10084;50.518;8.588;2022-07-21T06:44:08;27.50;79.30
19847;DHT22;10084;50.518;8.588;2022-07-21T06:46:34;27.00;80.70
19847;DHT22;10084;50.518;8.588;2022-07-21T06:49:00;26.60;78.80
19847;DHT22;10084;50.518;8.588;2022-07-21T06:51:26;26.30;80.60
19847;DHT22;10084;50.518;8.588;2022-07-21T06:53:52;26.00;79.60
19847;DHT22;10084;50.518;8.588;2022-07-21T06:56:18;25.80;78.70
19847;DHT22;10084;50.518;8.588;2022-07-21T06:58:44;25.60;79.10
19847;DHT22;10084;50.518;8.588;2022-07-21T07:01:10;25.60;79.40
19847;DHT22;10084;50.518;8.588;2022-07-21T07:03:36;25.70;79.60
19847;DHT22;10084;50.518;8.588;2022-07-21T07:06:04;25.80;79.30
19847;DHT22;10084;50.518;8.588;2022-07-21T07:08:30;25.90;79.00
19847;DHT22;10084;50.518;8.588;2022-07-21T07:10:56;25.90;79.10
19847;DHT22;10084;50.518;8.588;2022-07-21T07:13:22;26.00;79.30
19847;DHT22;10084;50.518;8.588;2022-07-21T07:15:48;26.20;80.00
19847;DHT22;10084;50.518;8.588;2022-07-21T07:18:14;26.80;82.70
19847;DHT22;10084;50.518;8.588;2022-07-21T07:20:40;27.90;85.40
19847;DHT22;10084;50.518;8.588;2022-07-21T07:25:33;30.60;89.00
19847;DHT22;10084;50.518;8.588;2022-07-21T07:27:59;31.90;83.50
19847;DHT22;10084;50.518;8.588;2022-07-21T07:30:26;32.40;84.90
19847;DHT22;10084;50.518;8.588;2022-07-21T07:32:52;32.30;85.70
19847;DHT22;10084;50.518;8.588;2022-07-21T07:35:17;32.00;86.10
19847;DHT22;10084;50.518;8.588;2022-07-21T07:37:45;32.10;84.00
19847;DHT22;10084;50.518;8.588;2022-07-21T07:40:16;31.30;80.70
19847;DHT22;10084;50.518;8.588;2022-07-21T07:42:42;31.00;82.50
19847;DHT22;10084;50.518;8.588;2022-07-21T07:45:08;30.80;83.50
19847;DHT22;10084;50.518;8.588;2022-07-21T07:47:34;30.60;81.90
19847;DHT22;10084;50.518;8.588;2022-07-21T07:50:00;30.20;80.60
19847;DHT22;10084;50.518;8.588;2022-07-21T07:52:26;30.00;77.00
19847;DHT22;10084;50.518;8.588;2022-07-21T07:57:20;30.60;78.50
19847;DHT22;10084;50.518;8.588;2022-07-21T07:59:45;31.00;75.80
19847;DHT22;10084;50.518;8.588;2022-07-21T08:02:11;31.30;75.20
19847;DHT22;10084;50.518;8.588;2022-07-21T08:04:37;31.40;74.90
19847;DHT22;10084;50.518;8.588;2022-07-21T08:07:03;31.50;74.50
19847;DHT22;10084;50.518;8.588;2022-07-21T08:09:30;31.40;73.60
19847;DHT22;10084;50.518;8.588;2022-07-21T08:11:56;31.10;73.00
19847;DHT22;10084;50.518;8.588;2022-07-21T08:14:21;30.60;74.50
19847;DHT22;10084;50.518;8.588;2022-07-21T08:16:47;29.70;82.00
19847;DHT22;10084;50.518;8.588;2022-07-21T08:19:13;29.60;79.60
19847;DHT22;10084;50.518;8.588;2022-07-21T08:21:39;29.10;83.10
19847;DHT22;10084;50.518;8.588;2022-07-21T08:24:06;28.80;83.30
19847;DHT22;10084;50.518;8.588;2022-07-21T08:26:31;28.30;71.90
19847;DHT22;10084;50.518;8.588;2022-07-21T08:28:57;28.00;84.40
19847;DHT22;10084;50.518;8.588;2022-07-21T08:31:24;27.70;84.80
19847;DHT22;10084;50.518;8.588;2022-07-21T08:33:51;27.60;85.30
19847;DHT22;10084;50.518;8.588;2022-07-21T08:36:17;27.50;83.40
19847;DHT22;10084;50.518;8.588;2022-07-21T08:38:43;27.40;84.10
19847;DHT22;10084;50.518;8.588;2022-07-21T08:41:08;27.10;83.00
19847;DHT22;10084;50.518;8.588;2022-07-21T08:43:35;27.10;84.20
19847;DHT22;10084;50.518;8.588;2022-07-21T08:46:02;27.10;83.10
19847;DHT22;10084;50.518;8.588;2022-07-21T08:48:28;27.10;82.20
19847;DHT22;10084;50.518;8.588;2022-07-21T08:50:56;27.10;78.70
19847;DHT22;10084;50.518;8.588;2022-07-21T08:53:22;26.90;79.20
19847;DHT22;10084;50.518;8.588;2022-07-21T08:55:48;26.80;82.30
19847;DHT22;10084;50.518;8.588;2022-07-21T08:58:14;26.90;82.60
19847;DHT22;10084;50.518;8.588;2022-07-21T09:00:43;27.10;83.60
19847;DHT22;10084;50.518;8.588;2022-07-21T09:03:15;27.30;83.30
19847;DHT22;10084;50.518;8.588;2022-07-21T09:05:43;27.30;80.90
19847;DHT22;10084;50.518;8.588;2022-07-21T09:08:32;27.30;82.60
19847;DHT22;10084;50.518;8.588;2022-07-21T09:15:59;27.50;83.00
19847;DHT22;10084;50.518;8.588;2022-07-21T09:18:25;27.60;84.80
19847;DHT22;10084;50.518;8.588;2022-07-21T09:20:52;27.90;85.90
19847;DHT22;10084;50.518;8.588;2022-07-21T09:23:21;28.10;81.40
19847;DHT22;10084;50.518;8.588;2022-07-21T09:25:49;28.20;79.70
19847;DHT22;10084;50.518;8.588;2022-07-21T09:28:20;28.40;80.60
19847;DHT22;10084;50.518;8.588;2022-07-21T09:36:07;29.00;72.30
19847;DHT22;10084;50.518;8.588;2022-07-21T09:39:00;29.10;72.40
19847;DHT22;10084;50.518;8.588;2022-07-21T09:41:26;29.30;72.40
19847;DHT22;10084;50.518;8.588;2022-07-21T09:43:54;29.50;72.10
19847;DHT22;10084;50.518;8.588;2022-07-21T09:46:28;29.60;71.80
19847;DHT22;10084;50.518;8.588;2022-07-21T09:48:57;29.70;72.00
19847;DHT22;10084;50.518;8.588;2022-07-21T09:56:19;30.10;79.60
19847;DHT22;10084;50.518;8.588;2022-07-21T09:58:46;29.70;75.40
19847;DHT22;10084;50.518;8.588;2022-07-21T10:01:13;29.70;75.30
19847;DHT22;10084;50.518;8.588;2022-07-21T10:03:39;29.70;75.10
19847;DHT22;10084;50.518;8.588;2022-07-21T10:06:05;29.70;75.10
19847;DHT22;10084;50.518;8.588;2022-07-21T10:08:33;29.60;75.50
19847;DHT22;10084;50.518;8.588;2022-07-21T10:11:00;29.50;76.30
19847;DHT22;10084;50.518;8.588;2022-07-21T10:13:27;29.60;77.80
19847;DHT22;10084;50.518;8.588;2022-07-21T10:15:53;29.70;78.20
19847;DHT22;10084;50.518;8.588;2022-07-21T10:18:32;29.70;78.10
19847;DHT22;10084;50.518;8.588;2022-07-21T10:21:08;30.00;74.00
19847;DHT22;10084;50.518;8.588;2022-07-21T10:23:39;29.60;74.30
19847;DHT22;10084;50.518;8.588;2022-07-21T10:26:07;29.50;74.50
19847;DHT22;10084;50.518;8.588;2022-07-21T10:28:34;29.30;74.80
19847;DHT22;10084;50.518;8.588;2022-07-21T10:31:21;29.20;75.40
19847;DHT22;10084;50.518;8.588;2022-07-21T10:39:23;29.30;76.40
19847;DHT22;10084;50.518;8.588;2022-07-21T10:41:50;29.30;76.10
19847;DHT22;10084;50.518;8.588;2022-07-21T11:03:14;29.00;82.20
19847;DHT22;10084;50.518;8.588;2022-07-21T11:08:38;29.70;71.30
19847;DHT22;10084;50.518;8.588;2022-07-21T11:14:03;29.60;70.40
19847;DHT22;10084;50.518;8.588;2022-07-21T11:19:34;29.20;69.50
19847;DHT22;10084;50.518;8.588;2022-07-21T11:22:16;29.10;69.00
19847;DHT22;10084;50.518;8.588;2022-07-21T11:24:44;29.10;69.20
19847;DHT22;10084;50.518;8.588;2022-07-21T11:27:16;29.10;69.30
19847;DHT22;10084;50.518;8.588;2022-07-21T11:29:43;29.20;69.90
19847;DHT22;10084;50.518;8.588;2022-07-21T11:32:10;29.40;71.00
19847;DHT22;10084;50.518;8.588;2022-07-21T11:34:58;29.70;78.40
19847;DHT22;10084;50.518;8.588;2022-07-21T11:37:29;29.80;74.90
19847;DHT22;10084;50.518;8.588;2022-07-21T11:39:55;29.90;71.20
19847;DHT22;10084;50.518;8.588;2022-07-21T11:42:22;29.80;70.50
19847;DHT22;10084;50.518;8.588;2022-07-21T11:44:47;29.60;70.20
19847;DHT22;10084;50.518;8.588;2022-07-21T11:47:15;29.40;69.80
19847;DHT22;10084;50.518;8.588;2022-07-21T11:49:42;29.20;70.10
19847;DHT22;10084;50.518;8.588;2022-07-21T11:52:14;29.10;70.30
19847;DHT22;10084;50.518;8.588;2022-07-21T11:54:49;29.00;70.30
19847;DHT22;10084;50.518;8.588;2022-07-21T11:57:17;28.90;70.50
19847;DHT22;10084;50.518;8.588;2022-07-21T11:59:45;28.80;71.10
19847;DHT22;10084;50.518;8.588;2022-07-21T12:02:13;28.70;72.20
19847;DHT22;10084;50.518;8.588;2022-07-21T12:05:08;28.60;72.40
19847;DHT22;10084;50.518;8.588;2022-07-21T12:07:39;28.60;72.60
19847;DHT22;10084;50.518;8.588;2022-07-21T12:12:45;29.00;78.00
19847;DHT22;10084;50.518;8.588;2022-07-21T12:17:43;29.10;75.90
19847;DHT22;10084;50.518;8.588;2022-07-21T12:20:09;29.10;75.50
19847;DHT22;10084;50.518;8.588;2022-07-21T12:22:40;29.10;75.70
19847;DHT22;10084;50.518;8.588;2022-07-21T12:25:10;29.10;77.10
19847;DHT22;10084;50.518;8.588;2022-07-21T12:27:38;29.30;78.00
19847;DHT22;10084;50.518;8.588;2022-07-21T12:30:06;29.60;74.70
19847;DHT22;10084;50.518;8.588;2022-07-21T12:33:05;29.70;69.20
19847;DHT22;10084;50.518;8.588;2022-07-21T12:35:31;29.80;68.50
19847;DHT22;10084;50.518;8.588;2022-07-21T12:38:06;30.00;68.20
19847;DHT22;10084;50.518;8.588;2022-07-21T12:40:33;30.00;67.80
19847;DHT22;10084;50.518;8.588;2022-07-21T12:43:19;30.10;67.80
19847;DHT22;10084;50.518;8.588;2022-07-21T12:48:33;30.20;67.30
19847;DHT22;10084;50.518;8.588;2022-07-21T12:53:48;30.00;66.40
19847;DHT22;10084;50.518;8.588;2022-07-21T12:56:17;29.90;66.50
19847;DHT22;10084;50.518;8.588;2022-07-21T12:58:43;29.90;66.60
19847;DHT22;10084;50.518;8.588;2022-07-21T13:01:09;30.10;66.70
19847;DHT22;10084;50.518;8.588;2022-07-21T13:03:36;30.30;66.20
19847;DHT22;10084;50.518;8.588;2022-07-21T13:06:03;30.40;65.70
19847;DHT22;10084;50.518;8.588;2022-07-21T13:08:29;30.50;65.50
19847;DHT22;10084;50.518;8.588;2022-07-21T13:10:55;30.40;65.00
19847;DHT22;10084;50.518;8.588;2022-07-21T13:13:21;30.40;65.00
19847;DHT22;10084;50.518;8.588;2022-07-21T13:15:48;30.30;64.90
19847;DHT22;10084;50.518;8.588;2022-07-21T13:18:13;30.20;64.90
19847;DHT22;10084;50.518;8.588;2022-07-21T13:20:39;30.20;64.90
19847;DHT22;10084;50.518;8.588;2022-07-21T13:23:05;30.20;65.00
19847;DHT22;10084;50.518;8.588;2022-07-21T13:25:31;30.30;65.00
19847;DHT22;10084;50.518;8.588;2022-07-21T13:27:57;30.40;65.40
19847;DHT22;10084;50.518;8.588;2022-07-21T13:30:22;30.50;64.60
19847;DHT22;10084;50.518;8.588;2022-07-21T13:32:48;30.40;64.40
19847;DHT22;10084;50.518;8.588;2022-07-21T13:35:14;30.20;64.20
19847;DHT22;10084;50.518;8.588;2022-07-21T13:37:40;30.00;64.20
19847;DHT22;10084;50.518;8.588;2022-07-21T13:40:07;29.90;64.40
19847;DHT22;10084;50.518;8.588;2022-07-21T13:42:33;29.70;64.40
19847;DHT22;10084;50.518;8.588;2022-07-21T13:44:58;29.60;64.40
19847;DHT22;10084;50.518;8.588;2022-07-21T13:47:24;29.40;64.40
19847;DHT22;10084;50.518;8.588;2022-07-21T13:49:50;29.20;64.60
19847;DHT22;10084;50.518;8.588;2022-07-21T13:52:15;29.10;64.70
19847;DHT22;10084;50.518;8.588;2022-07-21T13:54:41;29.10;65.00
19847;DHT22;10084;50.518;8.588;2022-07-21T13:57:07;29.10;65.10
19847;DHT22;10084;50.518;8.588;2022-07-21T13:59:33;29.10;65.20
19847;DHT22;10084;50.518;8.588;2022-07-21T14:01:58;29.20;65.30
19847;DHT22;10084;50.518;8.588;2022-07-21T14:04:24;29.20;65.40
19847;DHT22;10084;50.518;8.588;2022-07-21T14:06:50;29.30;65.40
19847;DHT22;10084;50.518;8.588;2022-07-21T14:09:17;29.30;65.50
19847;DHT22;10084;50.518;8.588;2022-07-21T14:11:44;29.30;65.50
19847;DHT22;10084;50.518;8.588;2022-07-21T14:14:10;29.30;65.90
19847;DHT22;10084;50.518;8.588;2022-07-21T14:16:43;29.40;66.00
19847;DHT22;10084;50.518;8.588;2022-07-21T14:19:09;29.40;66.20
19847;DHT22;10084;50.518;8.588;2022-07-21T14:21:38;29.40;66.50
19847;DHT22;10084;50.518;8.588;2022-07-21T14:24:04;29.40;66.80
19847;DHT22;10084;50.518;8.588;2022-07-21T14:26:49;29.40;67.50
19847;DHT22;10084;50.518;8.588;2022-07-21T14:29:14;29.30;68.30
19847;DHT22;10084;50.518;8.588;2022-07-21T14:31:40;29.20;70.10
19847;DHT22;10084;50.518;8.588;2022-07-21T14:34:06;29.20;67.80
19847;DHT22;10084;50.518;8.588;2022-07-21T14:36:31;29.00;67.60
19847;DHT22;10084;50.518;8.588;2022-07-21T14:38:57;28.90;66.80
19847;DHT22;10084;50.518;8.588;2022-07-21T14:41:23;28.80;66.90
19847;DHT22;10084;50.518;8.588;2022-07-21T14:43:49;28.70;66.90
19847;DHT22;10084;50.518;8.588;2022-07-21T14:46:15;28.60;67.10
19847;DHT22;10084;50.518;8.588;2022-07-21T14:48:41;28.50;67.30
19847;DHT22;10084;50.518;8.588;2022-07-21T14:51:07;28.30;67.50
19847;DHT22;10084;50.518;8.588;2022-07-21T14:53:32;28.30;68.10
19847;DHT22;10084;50.518;8.588;2022-07-21T14:55:58;28.20;69.50
19847;DHT22;10084;50.518;8.588;2022-07-21T15:00:50;28.00;68.20
19847;DHT22;10084;50.518;8.588;2022-07-21T15:03:15;27.90;69.00
19847;DHT22;10084;50.518;8.588;2022-07-21T15:05:41;27.80;68.40
19847;DHT22;10084;50.518;8.588;2022-07-21T15:08:07;27.80;71.20
19847;DHT22;10084;50.518;8.588;2022-07-21T15:10:33;27.70;68.70
19847;DHT22;10084;50.518;8.588;2022-07-21T15:12:58;27.60;68.70
19847;DHT22;10084;50.518;8.588;2022-07-21T15:15:24;27.50;69.10
19847;DHT22;10084;50.518;8.588;2022-07-21T15:17:50;27.40;69.70
19847;DHT22;10084;50.518;8.588;2022-07-21T15:20:16;27.30;71.20
19847;DHT22;10084;50.518;8.588;2022-07-21T15:22:42;27.30;69.10
19847;DHT22;10084;50.518;8.588;2022-07-21T15:25:09;27.20;69.50
19847;DHT22;10084;50.518;8.588;2022-07-21T15:27:42;27.10;69.80
19847;DHT22;10084;50.518;8.588;2022-07-21T15:30:10;27.00;70.80
19847;DHT22;10084;50.518;8.588;2022-07-21T15:32:36;26.90;68.00
19847;DHT22;10084;50.518;8.588;2022-07-21T15:35:02;26.90;68.10
19847;DHT22;10084;50.518;8.588;2022-07-21T15:37:28;26.80;68.40
19847;DHT22;10084;50.518;8.588;2022-07-21T15:39:54;26.70;69.10
19847;DHT22;10084;50.518;8.588;2022-07-21T15:42:20;26.60;69.70
19847;DHT22;10084;50.518;8.588;2022-07-21T15:44:46;26.50;67.90
19847;DHT22;10084;50.518;8.588;2022-07-21T15:47:12;26.40;70.90
19847;DHT22;10084;50.518;8.588;2022-07-21T15:49:37;26.30;71.90
19847;DHT22;10084;50.518;8.588;2022-07-21T15:52:04;26.20;67.10
19847;DHT22;10084;50.518;8.588;2022-07-21T15:54:31;26.10;67.80
19847;DHT22;10084;50.518;8.588;2022-07-21T15:56:58;26.10;71.10
19847;DHT22;10084;50.518;8.588;2022-07-21T15:59:24;26.00;68.20
19847;DHT22;10084;50.518;8.588;2022-07-21T16:02:00;25.90;68.70
19847;DHT22;10084;50.518;8.588;2022-07-21T16:04:26;25.90;69.40
19847;DHT22;10084;50.518;8.588;2022-07-21T16:06:51;25.90;70.00
19847;DHT22;10084;50.518;8.588;2022-07-21T16:09:17;25.80;71.00
19847;DHT22;10084;50.518;8.588;2022-07-21T16:11:43;25.80;75.00
19847;DHT22;10084;50.518;8.588;2022-07-21T16:14:09;25.80;74.20
19847;DHT22;10084;50.518;8.588;2022-07-21T16:16:34;25.70;74.70
19847;DHT22;10084;50.518;8.588;2022-07-21T16:19:02;25.60;77.70
19847;DHT22;10084;50.518;8.588;2022-07-21T16:21:30;25.60;75.00
19847;DHT22;10084;50.518;8.588;2022-07-21T16:23:56;25.60;76.20
19847;DHT22;10084;50.518;8.588;2022-07-21T16:28:51;25.60;73.20
19847;DHT22;10084;50.518;8.588;2022-07-21T16:31:17;25.60;73.60
19847;DHT22;10084;50.518;8.588;2022-07-21T16:33:43;25.60;73.50
19847;DHT22;10084;50.518;8.588;2022-07-21T16:36:09;25.60;73.80
19847;DHT22;10084;50.518;8.588;2022-07-21T16:38:35;25.60;74.00
19847;DHT22;10084;50.518;8.588;2022-07-21T16:41:01;25.60;74.20
19847;DHT22;10084;50.518;8.588;2022-07-21T16:43:26;25.70;74.40
19847;DHT22;10084;50.518;8.588;2022-07-21T16:45:52;25.60;74.70